createdAt,value
2022-08-09T00:00:07.967Z,13.13
2022-08-09T00:02:49.301Z,13.02
2022-08-09T00:06:17.779Z,13.00
2022-08-09T00:08:11.389Z,13.07
2022-08-09T00:10:58.828Z,12.98
2022-08-09T00:13:25.532Z,12.88
2022-08-09T00:15:59.799Z,12.52
2022-08-09T00:18:34.611Z,12.32
2022-08-09T00:21:05.002Z,12.77
2022-08-09T00:23:58.135Z,13.07
2022-08-09T00:26:19.351Z,12.80
2022-08-09T00:28:58.393Z,12.93
2022-08-09T00:31:55.749Z,12.43
2022-08-09T00:34:13.667Z,12.55
2022-08-09T00:36:41.617Z,13.15
2022-08-09T00:39:16.957Z,12.57
2022-08-09T00:44:10.959Z,12.32
2022-08-09T00:44:46.860Z,12.43
2022-08-09T00:47:15.502Z,12.50
2022-08-09T00:49:43.684Z,12.00
2022-08-09T00:52:19.691Z,12.95
2022-08-09T00:54:48.567Z,12.80
2022-08-09T00:57:24.796Z,12.45
2022-08-09T01:00:02.975Z,12.50
2022-08-09T01:02:33.943Z,12.35
2022-08-09T01:05:51.570Z,12.40
2022-08-09T01:08:48.865Z,12.30
2022-08-09T01:11:53.076Z,12.20
2022-08-09T01:14:25.157Z,12.40
2022-08-09T01:16:58.882Z,12.60
2022-08-09T01:20:02.618Z,12.40
2022-08-09T01:23:00.832Z,12.35
2022-08-09T01:25:55.998Z,12.05
2022-08-09T01:28:26.006Z,12.50
2022-08-09T01:30:55.561Z,12.25
2022-08-09T01:33:29.879Z,12.68
2022-08-09T01:38:38.491Z,12.52
2022-08-09T01:41:14.892Z,12.40
2022-08-09T01:43:51.799Z,12.43
2022-08-09T01:46:42.483Z,12.30
2022-08-09T01:49:17.018Z,12.70
2022-08-09T01:51:53.117Z,12.23
2022-08-09T01:54:39.487Z,12.75
2022-08-09T01:57:14.849Z,12.27
2022-08-09T01:59:51.919Z,12.27
2022-08-09T02:02:23.141Z,11.95
2022-08-09T02:05:04.052Z,12.73
2022-08-09T02:08:38.900Z,12.90
2022-08-09T02:10:30.041Z,12.55
2022-08-09T02:13:04.159Z,12.45
2022-08-09T02:15:48.748Z,12.52
2022-08-09T02:18:20.621Z,12.50
2022-08-09T02:21:00.273Z,12.50
2022-08-09T02:23:40.120Z,12.40
2022-08-09T02:26:26.846Z,12.32
2022-08-09T02:28:59.633Z,12.05
2022-08-09T02:31:37.807Z,12.02
2022-08-09T02:34:13.175Z,12.57
2022-08-09T02:36:47.021Z,12.60
2022-08-09T02:39:33.801Z,12.52
2022-08-09T02:42:10.580Z,12.00
2022-08-09T02:44:48.289Z,11.93
2022-08-09T02:47:17.511Z,11.98
2022-08-09T02:50:06.307Z,12.38
2022-08-09T02:53:05.063Z,12.10
2022-08-09T02:55:46.126Z,11.65
2022-08-09T02:58:35.388Z,12.25
2022-08-09T03:01:08.103Z,11.68
2022-08-09T03:06:27.706Z,12.60
2022-08-09T03:08:56.380Z,12.13
2022-08-09T03:12:05.239Z,11.35
2022-08-09T03:14:12.084Z,12.90
2022-08-09T03:16:41.995Z,11.60
2022-08-09T03:19:59.239Z,12.25
2022-08-09T03:22:04.646Z,12.75
2022-08-09T03:24:42.584Z,12.18
2022-08-09T03:27:21.517Z,12.68
2022-08-09T03:29:57.958Z,12.73
2022-08-09T03:32:31.118Z,12.80
2022-08-09T03:34:59.692Z,12.30
2022-08-09T03:37:58.302Z,12.57
2022-08-09T03:40:17.934Z,11.85
2022-08-09T03:42:46.683Z,12.30
2022-08-09T03:45:14.193Z,12.15
2022-08-09T03:47:46.823Z,11.95
2022-08-09T03:50:18.712Z,12.48
2022-08-09T03:52:58.144Z,12.88
2022-08-09T03:55:26.996Z,13.27
2022-08-09T03:58:06.561Z,12.52
2022-08-09T04:00:44.314Z,12.95
2022-08-09T04:03:15.359Z,12.25
2022-08-09T04:05:51.811Z,12.33
2022-08-09T04:08:18.472Z,12.80
2022-08-09T04:10:55.651Z,13.00
2022-08-09T04:14:37.762Z,13.40
2022-08-09T04:16:19.441Z,13.20
2022-08-09T04:18:47.962Z,13.52
2022-08-09T04:21:17.750Z,13.27
2022-08-09T04:23:54.496Z,13.40
2022-08-09T04:26:37.876Z,13.30
2022-08-09T04:29:10.915Z,13.32
2022-08-09T04:31:47.260Z,13.68
2022-08-09T04:34:18.970Z,12.95
2022-08-09T04:36:57.543Z,12.85
2022-08-09T04:39:24.362Z,12.88
2022-08-09T04:41:51.443Z,13.07
2022-08-09T04:44:18.426Z,13.00
2022-08-09T04:46:58.539Z,13.15
2022-08-09T04:49:40.070Z,13.70
2022-08-09T04:52:18.539Z,12.85
2022-08-09T04:54:53.322Z,13.30
2022-08-09T04:57:21.491Z,13.18
2022-08-09T04:59:51.508Z,13.10
2022-08-09T05:02:18.915Z,13.07
2022-08-09T05:04:47.319Z,13.18
2022-08-09T05:07:19.385Z,13.35
2022-08-09T05:09:50.047Z,14.13
2022-08-09T05:12:17.532Z,13.18
2022-08-09T05:14:45.274Z,13.07
2022-08-09T05:17:15.349Z,13.50
2022-08-09T05:19:59.183Z,14.13
2022-08-09T05:22:33.356Z,14.18
2022-08-09T05:25:05.213Z,14.02
2022-08-09T05:27:32.053Z,13.70
2022-08-09T05:29:58.960Z,13.65
2022-08-09T05:32:26.674Z,13.80
2022-08-09T05:34:57.055Z,13.77
2022-08-09T05:37:23.979Z,15.10
2022-08-09T05:39:52.511Z,17.10
2022-08-09T05:42:21.930Z,17.23
2022-08-09T05:44:55.879Z,16.10
2022-08-09T05:47:25.338Z,14.52
2022-08-09T05:50:28.090Z,14.18
2022-08-09T05:52:44.368Z,13.60
2022-08-09T05:55:21.253Z,13.30
2022-08-09T05:57:56.904Z,13.60
2022-08-09T06:00:28.793Z,13.50
2022-08-09T06:03:00.406Z,13.30
2022-08-09T06:05:31.232Z,13.00
2022-08-09T06:08:19.507Z,12.98
2022-08-09T06:10:51.504Z,14.27
2022-08-09T06:13:20.845Z,13.57
2022-08-09T06:15:51.361Z,13.60
2022-08-09T06:20:54.139Z,14.07
2022-08-09T06:23:55.577Z,15.15
2022-08-09T06:26:20.200Z,14.90
2022-08-09T06:28:47.472Z,14.77
2022-08-09T06:31:14.307Z,14.55
2022-08-09T06:33:42.076Z,15.50
2022-08-09T06:36:15.385Z,18.88
2022-08-09T06:38:49.895Z,15.68
2022-08-09T06:41:19.219Z,14.63
2022-08-09T06:43:48.605Z,14.27
2022-08-09T06:46:39.127Z,13.45
2022-08-09T06:49:04.877Z,13.95
2022-08-09T06:51:33.739Z,14.50
2022-08-09T06:54:09.134Z,13.30
2022-08-09T06:56:45.434Z,14.20
2022-08-09T07:00:51.343Z,13.90
2022-08-09T07:02:03.767Z,13.50
2022-08-09T07:04:32.222Z,13.82
2022-08-09T07:07:00.091Z,14.00
2022-08-09T07:09:57.375Z,14.25
2022-08-09T07:12:18.777Z,14.05
2022-08-09T07:14:51.013Z,14.35
2022-08-09T07:17:20.082Z,13.27
2022-08-09T07:19:48.243Z,13.38
2022-08-09T07:22:18.721Z,12.00
2022-08-09T07:25:05.595Z,12.65
2022-08-09T07:27:43.227Z,12.35
2022-08-09T07:30:21.794Z,12.55
2022-08-09T07:32:52.138Z,11.88
2022-08-09T07:35:19.335Z,12.48
2022-08-09T07:37:47.963Z,16.35
2022-08-09T07:40:20.356Z,12.73
2022-08-09T07:42:54.915Z,11.70
2022-08-09T07:45:37.367Z,11.02
2022-08-09T07:48:08.262Z,11.60
2022-08-09T07:51:02.976Z,11.43
2022-08-09T07:54:05.178Z,11.50
2022-08-09T07:56:27.445Z,10.75
2022-08-09T07:58:55.678Z,12.10
2022-08-09T08:01:33.814Z,11.30
2022-08-09T08:04:03.051Z,10.60
2022-08-09T08:06:32.708Z,11.60
2022-08-09T08:09:05.336Z,11.30
2022-08-09T08:12:12.144Z,11.85
2022-08-09T08:14:33.112Z,11.00
2022-08-09T08:17:07.883Z,9.82
2022-08-09T08:19:38.816Z,12.27
2022-08-09T08:22:05.776Z,11.60
2022-08-09T08:24:40.609Z,12.13
2022-08-09T08:27:16.683Z,12.20
2022-08-09T08:29:48.542Z,11.90
2022-08-09T08:32:19.031Z,11.55
2022-08-09T08:34:55.548Z,10.82
2022-08-09T08:37:41.548Z,11.75
2022-08-09T08:40:13.941Z,12.38
2022-08-09T08:42:43.633Z,11.10
2022-08-09T08:45:16.659Z,11.50
2022-08-09T08:47:45.345Z,12.30
2022-08-09T08:50:18.274Z,12.50
2022-08-09T08:52:59.015Z,11.60
2022-08-09T08:55:27.890Z,12.20
2022-08-09T08:57:58.569Z,11.73
2022-08-09T09:00:30.483Z,11.20
2022-08-09T09:03:11.068Z,10.75
2022-08-09T09:06:00.468Z,11.63
2022-08-09T09:08:37.972Z,10.75
2022-08-09T09:11:17.683Z,11.13
2022-08-09T09:13:57.528Z,10.57
2022-08-09T09:16:34.063Z,9.65
2022-08-09T09:22:03.639Z,11.80
2022-08-09T09:24:34.717Z,11.05
2022-08-09T09:27:03.238Z,10.48
2022-08-09T09:29:58.011Z,12.10
2022-08-09T09:32:34.397Z,11.60
2022-08-09T09:35:15.676Z,11.52
2022-08-09T09:37:45.908Z,11.40
2022-08-09T09:40:13.169Z,10.27
2022-08-09T09:42:46.083Z,11.10
2022-08-09T09:45:14.505Z,10.90
2022-08-09T09:47:58.314Z,11.43
2022-08-09T09:50:51.214Z,11.50
2022-08-09T09:53:43.680Z,12.65
2022-08-09T09:56:19.882Z,12.45
2022-08-09T09:58:56.407Z,12.70
2022-08-09T10:01:37.451Z,12.20
2022-08-09T10:04:15.990Z,11.00
2022-08-09T10:06:51.779Z,12.05
2022-08-09T10:09:27.542Z,12.15
2022-08-09T10:12:14.748Z,11.85
2022-08-09T10:14:48.401Z,12.60
2022-08-09T10:17:51.134Z,12.75
2022-08-09T10:23:00.015Z,12.63
2022-08-09T10:25:34.906Z,12.77
2022-08-09T10:28:14.999Z,12.73
2022-08-09T10:32:21.030Z,13.57
2022-08-09T10:34:09.951Z,14.07
2022-08-09T10:36:22.199Z,13.40
2022-08-09T10:38:56.415Z,13.65
2022-08-09T10:41:26.787Z,13.90
2022-08-09T10:43:59.487Z,14.40
2022-08-09T10:47:03.999Z,14.55
2022-08-09T10:50:09.862Z,11.88
2022-08-09T10:53:10.716Z,12.88
2022-08-09T10:55:58.539Z,12.98
2022-08-09T10:58:34.557Z,13.70
2022-08-09T11:03:11.028Z,13.40
2022-08-09T11:04:31.645Z,12.43
2022-08-09T11:07:00.214Z,12.45
2022-08-09T11:09:48.217Z,12.18
2022-08-09T11:12:21.856Z,11.88
2022-08-09T11:14:57.629Z,11.38
2022-08-09T11:17:27.253Z,11.70
2022-08-09T11:20:22.101Z,10.52
2022-08-09T11:22:55.758Z,11.93
2022-08-09T11:25:44.694Z,12.80
2022-08-09T11:28:53.999Z,12.50
2022-08-09T11:34:20.402Z,12.80
2022-08-09T11:36:48.933Z,12.65
2022-08-09T11:39:16.662Z,12.40
2022-08-09T11:41:43.689Z,13.30
2022-08-09T11:44:12.087Z,11.40
2022-08-09T11:46:58.087Z,11.18
2022-08-09T11:50:54.037Z,11.27
2022-08-09T11:53:16.061Z,12.98
2022-08-09T11:55:53.343Z,12.98
2022-08-09T11:58:30.110Z,12.20
2022-08-09T12:01:09.058Z,12.80
2022-08-09T12:03:59.213Z,12.35
2022-08-09T12:06:32.532Z,11.77
2022-08-09T12:09:15.237Z,12.65
2022-08-09T12:12:04.258Z,13.07
2022-08-09T12:14:41.007Z,13.10
2022-08-09T12:17:27.640Z,11.80
2022-08-09T12:20:04.176Z,11.27
2022-08-09T12:22:31.628Z,12.75
2022-08-09T12:25:15.924Z,12.10
2022-08-09T12:29:12.529Z,12.52
2022-08-09T12:30:36.162Z,12.07
2022-08-09T12:33:07.331Z,12.68
2022-08-09T12:35:40.787Z,12.35
2022-08-09T12:38:29.601Z,12.68
2022-08-09T12:41:04.804Z,11.30
2022-08-09T12:44:06.007Z,12.15
2022-08-09T12:46:25.641Z,12.38
2022-08-09T12:48:55.522Z,14.15
2022-08-09T12:51:52.618Z,12.57
2022-08-09T12:54:13.169Z,12.93
2022-08-09T12:56:51.231Z,12.73
2022-08-09T12:59:23.189Z,13.30
2022-08-09T13:01:59.112Z,12.90
2022-08-09T13:04:37.794Z,14.27
2022-08-09T13:07:19.697Z,12.13
2022-08-09T13:09:55.714Z,13.10
2022-08-09T13:12:28.206Z,14.07
2022-08-09T13:15:07.721Z,12.52
2022-08-09T13:18:03.480Z,12.45
2022-08-09T13:21:03.764Z,13.00
2022-08-09T13:24:16.966Z,12.75
2022-08-09T13:26:37.582Z,12.25
2022-08-09T13:29:08.859Z,13.10
2022-08-09T13:32:16.054Z,11.77
2022-08-09T13:34:42.258Z,12.40
2022-08-09T13:37:09.202Z,13.93
2022-08-09T13:41:46.061Z,12.27
2022-08-09T13:42:26.591Z,14.10
2022-08-09T13:44:53.677Z,26.38
2022-08-09T13:47:33.151Z,14.50
2022-08-09T13:50:18.154Z,13.48
2022-08-09T13:52:57.172Z,13.98
2022-08-09T13:55:24.499Z,14.05
2022-08-09T13:57:59.366Z,14.40
2022-08-09T14:00:28.642Z,14.35
2022-08-09T14:03:03.976Z,13.80
2022-08-09T14:06:01.414Z,13.27
2022-08-09T14:08:31.537Z,13.48
2022-08-09T14:10:59.446Z,13.60
2022-08-09T14:14:15.769Z,13.50
2022-08-09T14:16:17.820Z,14.00
2022-08-09T14:18:50.149Z,13.57
2022-08-09T14:21:23.307Z,14.13
2022-08-09T14:23:57.103Z,12.90
2022-08-09T14:26:30.128Z,13.70
2022-08-09T14:29:00.813Z,13.15
2022-08-09T14:31:35.927Z,9.40
2022-08-09T14:34:17.349Z,13.27
2022-08-09T14:36:44.469Z,13.85
2022-08-09T14:39:11.593Z,10.15
2022-08-09T14:41:41.781Z,8.65
2022-08-09T14:44:09.641Z,9.50
2022-08-09T14:47:03.190Z,9.90
2022-08-09T14:49:26.874Z,8.90
2022-08-09T14:51:58.860Z,8.45
2022-08-09T14:56:58.962Z,9.18
2022-08-09T14:59:28.892Z,9.40
2022-08-09T15:01:57.017Z,8.43
2022-08-09T15:04:25.555Z,8.88
2022-08-09T15:10:03.479Z,9.57
2022-08-09T15:12:25.110Z,9.02
2022-08-09T15:14:54.490Z,9.35
2022-08-09T15:17:21.339Z,10.27
2022-08-09T15:19:59.768Z,9.95
2022-08-09T15:22:29.312Z,11.05
2022-08-09T15:24:55.990Z,9.82
2022-08-09T15:27:22.752Z,9.45
2022-08-09T15:30:55.521Z,9.73
2022-08-09T15:32:36.526Z,9.30
2022-08-09T15:35:18.257Z,9.30
2022-08-09T15:37:57.146Z,10.52
2022-08-09T15:40:43.644Z,8.90
2022-08-09T15:43:14.009Z,10.45
2022-08-09T15:46:07.616Z,11.00
2022-08-09T15:48:30.623Z,9.50
2022-08-09T15:51:01.131Z,10.05
2022-08-09T15:54:04.972Z,9.38
2022-08-09T15:56:29.408Z,10.68
2022-08-09T15:58:58.670Z,10.40
2022-08-09T16:01:25.839Z,10.05
2022-08-09T16:03:52.649Z,10.13
2022-08-09T16:06:35.326Z,9.90
2022-08-09T16:09:05.877Z,10.23
2022-08-09T16:11:33.766Z,10.00
2022-08-09T16:14:06.859Z,10.02
2022-08-09T16:16:42.060Z,9.63
2022-08-09T16:19:13.839Z,9.50
2022-08-09T16:21:41.671Z,10.70
2022-08-09T16:24:20.115Z,11.30
2022-08-09T16:27:00.108Z,10.18
2022-08-09T16:29:37.984Z,10.00
2022-08-09T16:32:35.233Z,11.10
2022-08-09T16:35:02.920Z,10.00
2022-08-09T16:37:54.963Z,10.70
2022-08-09T16:40:29.768Z,10.90
2022-08-09T16:43:09.774Z,11.02
2022-08-09T16:45:41.710Z,11.50
2022-08-09T16:48:39.961Z,11.10
2022-08-09T16:50:59.692Z,10.30
2022-08-09T16:53:36.711Z,10.00
2022-08-09T16:56:10.072Z,10.90
2022-08-09T16:58:39.587Z,10.40
2022-08-09T17:01:09.963Z,10.52
2022-08-09T17:03:37.586Z,10.40
2022-08-09T17:06:28.135Z,10.18
2022-08-09T17:09:04.856Z,10.00
2022-08-09T17:11:42.470Z,10.80
2022-08-09T17:14:26.676Z,10.10
2022-08-09T17:17:02.186Z,10.90
2022-08-09T17:19:47.542Z,9.88
2022-08-09T17:22:25.130Z,10.77
2022-08-09T17:25:03.216Z,10.23
2022-08-09T17:27:34.450Z,9.95
2022-08-09T17:30:07.200Z,9.85
2022-08-09T17:32:44.183Z,10.20
2022-08-09T17:35:13.214Z,10.20
2022-08-09T17:38:14.445Z,10.15
2022-08-09T17:40:33.244Z,10.20
2022-08-09T17:43:11.210Z,10.48
2022-08-09T17:46:02.919Z,10.77
2022-08-09T17:48:32.099Z,9.95
2022-08-09T17:51:08.943Z,10.88
2022-08-09T17:53:52.175Z,10.65
2022-08-09T17:56:27.589Z,10.18
2022-08-09T17:59:01.089Z,11.07
2022-08-09T18:02:03.475Z,10.25
2022-08-09T18:04:19.632Z,9.60
2022-08-09T18:06:54.631Z,10.10
2022-08-09T18:09:40.090Z,9.93
2022-08-09T18:12:19.486Z,9.60
2022-08-09T18:14:53.805Z,9.20
2022-08-09T18:18:02.550Z,9.88
2022-08-09T18:21:01.752Z,8.88
2022-08-09T18:23:05.146Z,9.60
2022-08-09T18:25:50.562Z,10.30
2022-08-09T18:30:42.518Z,10.00
2022-08-09T18:31:09.117Z,10.02
2022-08-09T18:33:36.306Z,9.38
2022-08-09T18:36:03.755Z,8.70
2022-08-09T18:38:30.554Z,10.00
2022-08-09T18:40:58.448Z,9.63
2022-08-09T18:43:25.488Z,8.85
2022-08-09T18:46:49.338Z,9.10
2022-08-09T18:48:42.511Z,8.80
2022-08-09T18:51:09.579Z,8.70
2022-08-09T18:53:56.515Z,8.55
2022-08-09T18:56:27.111Z,8.60
2022-08-09T18:58:56.492Z,8.70
2022-08-09T19:01:24.130Z,8.85
2022-08-09T19:04:00.849Z,8.50
2022-08-09T19:06:33.122Z,8.43
2022-08-09T19:09:03.111Z,9.30
2022-08-09T19:11:38.022Z,9.52
2022-08-09T19:14:08.129Z,9.18
2022-08-09T19:16:37.977Z,9.20
2022-08-09T19:19:23.501Z,8.90
2022-08-09T19:22:04.913Z,8.60
2022-08-09T19:24:38.274Z,8.77
2022-08-09T19:27:28.364Z,8.80
2022-08-09T19:30:21.119Z,9.30
2022-08-09T19:32:45.528Z,9.40
2022-08-09T19:35:16.709Z,9.10
2022-08-09T19:37:56.065Z,9.10
2022-08-09T19:40:33.375Z,9.60
2022-08-09T19:43:05.403Z,9.10
2022-08-09T19:45:39.206Z,9.40
2022-08-09T19:48:11.849Z,9.45
2022-08-09T19:50:49.031Z,8.85
2022-08-09T19:53:20.954Z,8.65
2022-08-09T19:56:05.939Z,9.20
2022-08-09T19:58:34.902Z,9.10
2022-08-09T20:01:03.270Z,8.70
2022-08-09T20:04:16.900Z,9.27
2022-08-09T20:06:22.429Z,9.23
2022-08-09T20:08:57.145Z,9.25
2022-08-09T20:11:26.721Z,9.10
2022-08-09T20:13:55.338Z,8.73
2022-08-09T20:16:37.094Z,9.55
2022-08-09T20:19:47.649Z,9.30
2022-08-09T20:22:00.306Z,9.25
2022-08-09T20:24:29.447Z,9.00
2022-08-09T20:27:02.604Z,9.50
2022-08-09T20:29:37.736Z,9.45
2022-08-09T20:32:28.627Z,9.60
2022-08-09T20:34:57.510Z,9.65
2022-08-09T20:37:24.348Z,10.10
2022-08-09T20:40:16.632Z,9.43
2022-08-09T20:42:38.236Z,9.50
2022-08-09T20:46:01.488Z,9.70
2022-08-09T20:47:55.119Z,9.32
2022-08-09T20:50:47.344Z,9.70
2022-08-09T20:53:18.531Z,9.02
2022-08-09T20:56:00.587Z,9.38
2022-08-09T20:58:28.719Z,9.30
2022-08-09T21:01:32.897Z,9.00
2022-08-09T21:05:48.878Z,9.00
2022-08-09T21:07:11.273Z,8.68
2022-08-09T21:13:59.426Z,9.70
2022-08-09T21:16:32.598Z,8.90
2022-08-09T21:25:59.185Z,9.23
2022-08-09T21:28:56.921Z,9.02
2022-08-09T21:31:57.768Z,8.90
2022-08-09T21:35:28.903Z,9.20
2022-08-09T21:39:41.682Z,9.50
2022-08-09T21:42:38.806Z,9.50
2022-08-09T21:45:26.004Z,9.65
2022-08-09T21:47:59.415Z,9.15
2022-08-09T21:50:38.595Z,9.00
2022-08-09T21:53:22.413Z,9.48
2022-08-09T21:55:55.454Z,9.30
2022-08-09T21:58:30.954Z,8.73
2022-08-09T22:00:58.067Z,9.05
2022-08-09T22:03:25.928Z,9.13
2022-08-09T22:05:54.125Z,9.10
2022-08-09T22:08:24.522Z,8.65
2022-08-09T22:11:50.054Z,8.77
2022-08-09T22:13:43.281Z,8.63
2022-08-09T22:16:11.661Z,8.85
2022-08-09T22:18:53.571Z,8.93
2022-08-09T22:21:49.717Z,8.98
2022-08-09T22:24:17.140Z,8.80
2022-08-09T22:26:51.104Z,8.90
2022-08-09T22:29:22.973Z,8.82
2022-08-09T22:31:56.746Z,8.80
2022-08-09T22:34:26.304Z,8.57
2022-08-09T22:36:58.800Z,8.82
2022-08-09T22:39:56.413Z,9.05
2022-08-09T22:42:20.638Z,8.50
2022-08-09T22:45:02.230Z,8.60
2022-08-09T22:48:17.817Z,8.63
2022-08-09T22:50:29.700Z,9.05
2022-08-09T22:52:58.144Z,8.60
2022-08-09T22:55:39.303Z,8.57
2022-08-09T22:58:31.004Z,9.00
2022-08-09T23:01:02.625Z,8.95
2022-08-09T23:04:02.827Z,9.50
2022-08-09T23:06:32.621Z,9.00
2022-08-09T23:09:04.174Z,9.27
2022-08-09T23:11:30.816Z,9.60
2022-08-09T23:13:58.796Z,9.27
2022-08-09T23:16:25.559Z,9.23
2022-08-09T23:18:52.240Z,8.80
2022-08-09T23:21:25.223Z,9.05
2022-08-09T23:24:05.019Z,9.27
2022-08-09T23:26:37.657Z,9.35
2022-08-09T23:29:13.854Z,9.18
2022-08-09T23:31:41.455Z,9.30
2022-08-09T23:34:08.361Z,9.20
2022-08-09T23:36:35.739Z,9.20
2022-08-09T23:39:03.908Z,9.00
2022-08-09T23:41:30.925Z,9.07
2022-08-09T23:43:59.705Z,9.00
2022-08-09T23:46:28.571Z,9.30
2022-08-09T23:48:55.832Z,8.88
2022-08-09T23:51:22.732Z,9.10
2022-08-09T23:53:50.532Z,9.20
2022-08-09T23:56:39.528Z,9.18
2022-08-09T23:59:06.346Z,9.10
